Airfield :
LOGIN :

Register | Disclaimer

   EN    FR    IT 

 










Legend :    VFR   Marginal VFR   IFR   Intensive IFR   Very Intensive IFR
Visi :
Ceiling :
>= 8 km
>= 3000ft
5 to 8 km
1000 to 3000 ft
1500m to 5 km
500 to 1000 ft
800 to 1500m
200 to 500 ft
< 800m
< 200 ft
Symbols :   Thunderstorms  Fog  Heavy snow  Heavy precipitations  Wind > 20 kt
SIGMETs :     Misc.  Thunderstorms  Icing  Turbulence  Mountain Waves  Volcanic Ashes






- Airport Elevation : 17 ft
- IATA code : CPH


EKCH - København - Kastrup (Copenhagen)

CURRENT METAR :
  • 252020Z AUTO 24006KT 9999 OVC046/// 13/09 Q1006 NOSIG

EXPIRED METARs :
  • 251950Z AUTO 24005KT 9999 SCT042/// BKN068/// BKN080/// BKN100/// 13/10 Q1006 NOSIG
  • 251920Z AUTO 24005KT 9999 BKN041/// BKN063/// BKN078/// 13/11 Q1007 NOSIG
  • 251850Z AUTO 25005KT 9999 FEW029/// FEW036/// BKN061/// 13/11 Q1007 NOSIG
  • 251820Z AUTO 26006KT 9999 BKN029/// 14/11 Q1007 TEMPO SHRA BKN012 SCT020TCU
  • 251750Z AUTO 22006KT 9999 BKN015/// BKN055/// 14/12 Q1007 TEMPO SHRA BKN012 SCT020TCU

TAF TAF EKCH
Valid from the 25 at 18:00 until the 26 at 18:00 UTC


251708Z 2518/2618 19008KT 9999 SCT020
TEMPO 2518/2523 SHRA BKN012 SCT020CB
TEMPO 2523/2612 SCT020TCU
TEMPO 2616/2618 RADZ



MET'MAP, your aeronautical weather chart ! - Copyright ORBIFLY December 2007 - Disclaimer

ORBIFLY MET'MAP TEAM :

Programming & Development : Alexandra Zaïnal
Original concept : Baudouin d'Aumeries
Technical & hardware support : Manuel Goepfert
Assistance : Marc-Olivier Méhu




SOURCES & CREDITS :

   NOAA